createdAt,value
2023-01-18T00:01:02.239Z,36.60
2023-01-18T00:03:33.207Z,36.30
2023-01-18T00:06:03.841Z,36.50
2023-01-18T00:08:33.842Z,36.60
2023-01-18T00:11:05.588Z,36.60
2023-01-18T00:13:33.864Z,36.80
2023-01-18T00:16:05.852Z,36.40
2023-01-18T00:18:35.911Z,36.70
2023-01-18T00:21:07.576Z,36.20
2023-01-18T00:23:36.099Z,36.80
2023-01-18T00:26:06.864Z,36.50
2023-01-18T00:28:36.583Z,36.50
2023-01-18T00:31:11.191Z,36.50
2023-01-18T00:33:39.401Z,36.80
2023-01-18T00:36:09.009Z,36.90
2023-01-18T00:38:36.988Z,36.50
2023-01-18T00:41:05.454Z,36.80
2023-01-18T00:43:41.370Z,36.50
2023-01-18T00:46:11.300Z,36.50
2023-01-18T00:48:40.826Z,36.30
2023-01-18T00:51:12.783Z,36.80
2023-01-18T00:53:41.247Z,36.20
2023-01-18T00:56:11.704Z,36.50
2023-01-18T00:58:39.697Z,36.50
2023-01-18T01:01:08.238Z,36.80
2023-01-18T01:03:50.650Z,36.50
2023-01-18T01:06:49.013Z,36.70
2023-01-18T01:09:21.268Z,36.90
2023-01-18T01:12:08.258Z,36.70
2023-01-18T01:14:56.605Z,36.60
2023-01-18T01:17:42.172Z,36.60
2023-01-18T01:20:29.417Z,36.50
2023-01-18T01:23:16.425Z,36.80
2023-01-18T01:26:01.974Z,36.60
2023-01-18T01:28:30.025Z,36.50
2023-01-18T01:30:59.046Z,36.80
2023-01-18T01:33:27.180Z,36.80
2023-01-18T01:35:57.676Z,36.60
2023-01-18T01:38:27.269Z,35.60
2023-01-18T01:41:00.880Z,36.60
2023-01-18T01:43:45.882Z,36.50
2023-01-18T01:46:23.165Z,36.80
2023-01-18T01:48:57.043Z,36.20
2023-01-18T01:51:25.209Z,36.50
2023-01-18T01:53:54.638Z,36.30
2023-01-18T01:56:23.331Z,36.50
2023-01-18T01:58:55.620Z,36.60
2023-01-18T02:01:24.107Z,36.60
2023-01-18T02:03:52.200Z,36.40
2023-01-18T02:06:31.808Z,36.20
2023-01-18T02:09:05.291Z,36.00
2023-01-18T02:11:33.359Z,36.50
2023-01-18T02:14:04.853Z,36.20
2023-01-18T02:16:50.537Z,36.50
2023-01-18T02:19:48.825Z,36.70
2023-01-18T02:22:39.731Z,36.50
2023-01-18T02:25:43.546Z,36.50
2023-01-18T02:28:17.137Z,36.70
2023-01-18T02:30:50.467Z,36.10
2023-01-18T02:33:29.150Z,35.50
2023-01-18T02:35:58.876Z,36.00
2023-01-18T02:38:30.909Z,36.50
2023-01-18T02:41:11.917Z,36.50
2023-01-18T02:44:01.192Z,36.60
2023-01-18T02:46:33.839Z,36.40
2023-01-18T02:49:09.112Z,36.80
2023-01-18T02:51:38.068Z,36.90
2023-01-18T02:54:10.576Z,36.60
2023-01-18T02:56:43.179Z,36.70
2023-01-18T02:59:17.407Z,36.10
2023-01-18T03:01:50.310Z,36.70
2023-01-18T03:04:25.178Z,36.60
2023-01-18T03:06:59.943Z,36.50
2023-01-18T03:09:28.963Z,36.80
2023-01-18T03:12:04.377Z,36.70
2023-01-18T03:14:43.090Z,36.70
2023-01-18T03:17:18.895Z,36.70
2023-01-18T03:20:08.587Z,36.90
2023-01-18T03:22:57.299Z,36.10
2023-01-18T03:25:30.969Z,37.00
2023-01-18T03:28:23.521Z,36.80
2023-01-18T03:31:13.083Z,36.70
2023-01-18T03:33:45.802Z,36.70
2023-01-18T03:36:19.431Z,36.60
2023-01-18T03:38:52.868Z,36.70
2023-01-18T03:41:23.292Z,36.60
2023-01-18T03:43:55.284Z,36.70
2023-01-18T03:46:27.229Z,36.70
2023-01-18T03:48:55.288Z,36.10
2023-01-18T03:51:55.928Z,36.80
2023-01-18T03:54:35.283Z,36.90
2023-01-18T03:57:08.434Z,36.40
2023-01-18T03:59:39.537Z,36.00
2023-01-18T04:02:10.346Z,36.50
2023-01-18T04:04:38.379Z,36.80
2023-01-18T04:07:06.439Z,36.80
2023-01-18T04:09:34.458Z,36.40
2023-01-18T04:12:02.433Z,36.70
2023-01-18T04:14:30.833Z,36.60
2023-01-18T04:16:58.908Z,36.60
2023-01-18T04:19:28.310Z,36.60
2023-01-18T04:21:56.356Z,36.40
2023-01-18T04:24:24.517Z,36.50
2023-01-18T04:26:52.537Z,36.70
2023-01-18T04:29:20.501Z,36.50
2023-01-18T04:31:48.773Z,36.70
2023-01-18T04:34:16.807Z,36.80
2023-01-18T04:36:46.098Z,36.40
2023-01-18T04:39:14.830Z,36.20
2023-01-18T04:41:42.866Z,36.70
2023-01-18T04:44:11.360Z,36.70
2023-01-18T04:46:39.333Z,36.60
2023-01-18T04:49:08.172Z,36.70
2023-01-18T04:51:36.670Z,36.70
2023-01-18T04:54:06.303Z,36.60
2023-01-18T04:56:34.505Z,36.80
2023-01-18T04:59:02.605Z,36.70
2023-01-18T05:01:30.827Z,36.40
2023-01-18T05:03:58.921Z,36.80
2023-01-18T05:06:27.149Z,36.70
2023-01-18T05:08:55.218Z,36.60
2023-01-18T05:11:24.616Z,36.30
2023-01-18T05:13:52.731Z,36.40
2023-01-18T05:16:23.669Z,36.50
2023-01-18T05:18:51.856Z,36.30
2023-01-18T05:21:20.075Z,36.40
2023-01-18T05:23:48.499Z,36.30
2023-01-18T05:26:19.882Z,36.30
2023-01-18T05:28:50.101Z,36.20
2023-01-18T05:31:21.078Z,36.40
2023-01-18T05:33:49.699Z,36.50
2023-01-18T05:36:18.054Z,36.60
2023-01-18T05:38:47.460Z,36.40
2023-01-18T05:41:15.636Z,36.60
2023-01-18T05:43:43.843Z,36.50
2023-01-18T05:46:13.496Z,36.60
2023-01-18T05:48:41.688Z,36.50
2023-01-18T05:51:11.163Z,36.50
2023-01-18T05:53:40.486Z,36.50
2023-01-18T05:56:10.223Z,36.50
2023-01-18T05:58:38.365Z,36.30
2023-01-18T06:01:08.451Z,36.50
2023-01-18T06:03:38.082Z,36.60
2023-01-18T06:06:06.721Z,36.60
2023-01-18T06:08:35.726Z,36.40
2023-01-18T06:11:04.577Z,36.50
2023-01-18T06:13:33.248Z,36.30
2023-01-18T06:16:02.267Z,36.50
2023-01-18T06:18:33.743Z,36.50
2023-01-18T06:21:04.092Z,36.40
2023-01-18T06:23:33.361Z,36.60
2023-01-18T06:26:01.461Z,36.40
2023-01-18T06:28:30.796Z,36.50
2023-01-18T06:30:59.142Z,36.50
2023-01-18T06:33:27.567Z,36.30
2023-01-18T06:35:55.704Z,36.50
2023-01-18T06:38:25.119Z,37.20
2023-01-18T06:40:53.262Z,36.50
2023-01-18T06:43:21.711Z,36.30
2023-01-18T06:45:54.412Z,37.20
2023-01-18T06:48:23.931Z,36.10
2023-01-18T06:50:53.150Z,36.50
2023-01-18T06:53:21.518Z,36.50
2023-01-18T06:55:58.977Z,36.80
2023-01-18T06:58:28.346Z,36.40
2023-01-18T07:00:57.481Z,36.80
2023-01-18T07:03:26.985Z,36.30
2023-01-18T07:05:55.859Z,36.40
2023-01-18T07:08:26.786Z,36.50
2023-01-18T07:10:57.544Z,37.00
2023-01-18T07:13:26.983Z,36.50
2023-01-18T07:15:56.496Z,36.50
2023-01-18T07:18:24.879Z,36.00
2023-01-18T07:21:04.187Z,36.10
2023-01-18T07:23:32.417Z,36.30
2023-01-18T07:26:03.308Z,36.50
2023-01-18T07:28:34.989Z,36.40
2023-01-18T07:31:04.178Z,36.60
2023-01-18T07:33:32.598Z,36.40
2023-01-18T07:36:01.499Z,36.80
2023-01-18T07:38:30.935Z,36.60
2023-01-18T07:41:03.243Z,36.50
2023-01-18T07:43:31.942Z,36.50
2023-01-18T07:46:00.827Z,36.40
2023-01-18T07:48:29.771Z,36.50
2023-01-18T07:51:01.471Z,36.40
2023-01-18T07:53:30.825Z,36.50
2023-01-18T07:56:03.017Z,36.50
2023-01-18T07:58:31.750Z,36.70
2023-01-18T08:01:05.088Z,36.40
2023-01-18T08:03:33.877Z,36.50
2023-01-18T08:06:04.784Z,36.50
2023-01-18T08:08:33.255Z,36.70
2023-01-18T08:11:05.469Z,36.20
2023-01-18T08:13:34.026Z,35.90
2023-01-18T08:16:04.567Z,36.20
2023-01-18T08:18:32.873Z,36.20
2023-01-18T08:21:01.145Z,36.40
2023-01-18T08:23:29.243Z,36.50
2023-01-18T08:26:03.174Z,36.40
2023-01-18T08:28:31.424Z,35.50
2023-01-18T08:31:10.380Z,36.50
2023-01-18T08:33:45.387Z,36.50
2023-01-18T08:36:16.451Z,36.50
2023-01-18T08:38:44.912Z,36.20
2023-01-18T08:41:14.345Z,36.50
2023-01-18T08:43:42.927Z,36.50
2023-01-18T08:46:11.006Z,36.30
2023-01-18T08:48:39.080Z,36.30
2023-01-18T08:51:07.482Z,36.00
2023-01-18T08:53:35.537Z,36.30
2023-01-18T08:56:06.703Z,36.00
2023-01-18T08:58:36.160Z,35.90
2023-01-18T09:01:06.911Z,35.90
2023-01-18T09:03:36.208Z,35.60
2023-01-18T09:06:08.075Z,36.20
2023-01-18T09:08:36.758Z,35.60
2023-01-18T09:11:06.751Z,35.90
2023-01-18T09:13:36.233Z,35.70
2023-01-18T09:16:07.582Z,35.60
2023-01-18T09:18:36.133Z,35.50
2023-01-18T09:21:08.113Z,35.30
2023-01-18T09:23:39.848Z,35.70
2023-01-18T09:26:13.013Z,35.50
2023-01-18T09:28:42.448Z,35.80
2023-01-18T09:31:10.712Z,34.80
2023-01-18T09:33:41.185Z,35.60
2023-01-18T09:36:13.568Z,35.60
2023-01-18T09:38:45.835Z,35.50
2023-01-18T09:41:30.810Z,35.30
2023-01-18T09:44:04.189Z,35.40
2023-01-18T09:46:38.476Z,35.30
2023-01-18T09:49:08.423Z,34.10
2023-01-18T09:51:49.885Z,34.30
2023-01-18T09:54:32.936Z,34.70
2023-01-18T09:57:12.043Z,34.50
2023-01-18T09:59:50.153Z,34.00
2023-01-18T10:02:23.767Z,34.30
2023-01-18T10:04:56.115Z,33.70
2023-01-18T10:07:27.428Z,33.60
2023-01-18T10:09:59.337Z,34.00
2023-01-18T10:12:37.634Z,33.90
2023-01-18T10:15:17.413Z,34.00
2023-01-18T10:17:47.768Z,33.70
2023-01-18T10:20:18.673Z,33.80
2023-01-18T10:22:53.738Z,33.60
2023-01-18T10:25:32.691Z,34.00
2023-01-18T10:28:26.141Z,33.90
2023-01-18T10:31:15.864Z,33.80
2023-01-18T10:33:46.833Z,34.10
2023-01-18T10:36:18.265Z,33.90
2023-01-18T10:38:47.933Z,33.90
2023-01-18T10:41:21.759Z,33.70
2023-01-18T10:43:50.028Z,33.70
2023-01-18T10:46:20.257Z,33.70
2023-01-18T10:48:50.228Z,33.70
2023-01-18T10:51:32.815Z,33.90
2023-01-18T10:54:01.212Z,33.70
2023-01-18T10:56:29.869Z,33.90
2023-01-18T10:59:00.966Z,33.60
2023-01-18T11:01:33.725Z,33.40
2023-01-18T11:04:06.079Z,33.50
2023-01-18T11:06:47.064Z,33.30
2023-01-18T11:09:41.978Z,32.70
2023-01-18T11:12:38.444Z,32.50
2023-01-18T11:15:25.891Z,32.40
2023-01-18T11:18:12.017Z,32.70
2023-01-18T11:20:58.213Z,32.50
2023-01-18T11:23:32.176Z,32.30
2023-01-18T11:26:02.825Z,32.00
2023-01-18T11:28:39.277Z,32.10
2023-01-18T11:31:13.729Z,31.80
2023-01-18T11:33:52.329Z,31.90
2023-01-18T11:36:22.664Z,31.50
2023-01-18T11:38:50.859Z,31.80
2023-01-18T11:41:23.270Z,31.50
2023-01-18T11:44:05.895Z,31.50
2023-01-18T11:46:42.497Z,31.30
2023-01-18T11:49:25.561Z,30.90
2023-01-18T11:52:01.746Z,31.00
2023-01-18T11:54:38.434Z,31.00
2023-01-18T11:57:10.177Z,30.50
2023-01-18T11:59:42.409Z,30.50
2023-01-18T12:02:34.112Z,30.20
2023-01-18T12:05:43.680Z,30.30
2023-01-18T12:08:43.353Z,29.90
2023-01-18T12:11:28.334Z,30.00
2023-01-18T12:14:03.326Z,29.80
2023-01-18T12:16:54.279Z,29.70
2023-01-18T12:19:48.380Z,29.60
2023-01-18T12:22:46.923Z,29.70
2023-01-18T12:26:11.326Z,29.50
2023-01-18T12:28:58.476Z,29.40
2023-01-18T12:31:45.658Z,29.20
2023-01-18T12:34:18.537Z,29.00
2023-01-18T12:37:14.389Z,29.40
2023-01-18T12:40:01.083Z,28.90
2023-01-18T12:42:45.494Z,29.20
2023-01-18T12:45:25.441Z,28.90
2023-01-18T12:48:08.967Z,28.90
2023-01-18T12:50:38.907Z,29.20
2023-01-18T12:53:19.984Z,29.70
2023-01-18T12:55:55.234Z,28.90
2023-01-18T12:58:26.409Z,28.90
2023-01-18T13:00:59.197Z,28.80
2023-01-18T13:03:34.788Z,28.90
2023-01-18T13:06:03.995Z,28.60
2023-01-18T13:08:40.328Z,28.70
2023-01-18T13:11:14.797Z,28.50
2023-01-18T13:13:44.843Z,28.60
2023-01-18T13:16:31.520Z,28.70
2023-01-18T13:19:05.487Z,28.30
2023-01-18T13:21:49.368Z,28.70
2023-01-18T13:24:34.242Z,28.40
2023-01-18T13:27:12.923Z,28.40
2023-01-18T13:29:41.781Z,28.40
2023-01-18T13:32:38.820Z,28.20
2023-01-18T13:35:20.862Z,28.30
2023-01-18T13:37:54.387Z,28.30
2023-01-18T13:40:28.926Z,28.00
2023-01-18T13:42:58.501Z,28.40
2023-01-18T13:45:30.244Z,27.90
2023-01-18T13:48:04.895Z,28.30
2023-01-18T13:50:47.258Z,28.20
2023-01-18T13:53:31.563Z,28.30
2023-01-18T13:56:28.497Z,28.40
2023-01-18T13:59:18.514Z,28.70
2023-01-18T14:01:49.698Z,28.20
2023-01-18T14:04:36.653Z,28.40
2023-01-18T14:07:07.443Z,28.80
2023-01-18T14:09:43.191Z,28.70
2023-01-18T14:12:12.849Z,28.40
2023-01-18T14:14:57.439Z,28.30
2023-01-18T14:17:26.561Z,28.50
2023-01-18T14:20:32.382Z,29.00
2023-01-18T14:23:16.066Z,28.30
2023-01-18T14:25:58.687Z,28.20
2023-01-18T14:28:36.379Z,28.50
2023-01-18T14:31:11.248Z,28.30
2023-01-18T14:33:41.206Z,28.10
2023-01-18T14:36:22.881Z,28.50
2023-01-18T14:39:12.767Z,28.20
2023-01-18T14:41:43.231Z,28.00
2023-01-18T14:44:17.929Z,28.50
2023-01-18T14:46:51.705Z,28.80
2023-01-18T14:49:26.251Z,28.60
2023-01-18T14:51:55.351Z,28.80
2023-01-18T14:54:25.799Z,28.80
2023-01-18T14:57:02.332Z,28.80
2023-01-18T14:59:33.087Z,29.20
2023-01-18T15:02:15.235Z,28.90
2023-01-18T15:04:45.518Z,28.90
2023-01-18T15:07:20.156Z,29.30
2023-01-18T15:09:48.819Z,29.20
2023-01-18T15:12:20.481Z,29.30
2023-01-18T15:14:51.357Z,29.10
2023-01-18T15:17:24.142Z,29.50
2023-01-18T15:19:56.512Z,29.30
2023-01-18T15:22:30.775Z,29.30
2023-01-18T15:25:00.831Z,29.60
2023-01-18T15:27:32.774Z,29.80
2023-01-18T15:30:02.860Z,29.50
2023-01-18T15:32:34.438Z,29.50
2023-01-18T15:35:03.951Z,29.90
2023-01-18T15:37:36.461Z,30.10
2023-01-18T15:40:25.238Z,30.00
2023-01-18T15:43:04.185Z,30.60
2023-01-18T15:45:35.428Z,31.00
2023-01-18T15:48:09.707Z,31.10
2023-01-18T15:50:44.752Z,31.20
2023-01-18T15:53:19.284Z,31.50
2023-01-18T15:55:51.571Z,31.50
2023-01-18T15:58:30.083Z,31.20
2023-01-18T16:01:01.753Z,31.30
2023-01-18T16:03:36.315Z,31.50
2023-01-18T16:06:12.249Z,31.60
2023-01-18T16:08:59.358Z,32.10
2023-01-18T16:11:34.357Z,31.80
2023-01-18T16:14:07.507Z,31.80
2023-01-18T16:16:39.704Z,32.10
2023-01-18T16:19:23.129Z,32.30
2023-01-18T16:21:54.727Z,32.20
2023-01-18T16:24:35.609Z,32.90
2023-01-18T16:27:11.484Z,32.70
2023-01-18T16:29:46.411Z,32.40
2023-01-18T16:32:29.529Z,32.70
2023-01-18T16:35:01.830Z,32.70
2023-01-18T16:37:30.715Z,33.00
2023-01-18T16:39:58.744Z,33.30
2023-01-18T16:42:37.550Z,33.10
2023-01-18T16:45:10.314Z,32.90
2023-01-18T16:47:38.308Z,33.70
2023-01-18T16:50:15.480Z,33.40
2023-01-18T16:52:43.487Z,33.00
2023-01-18T16:55:14.344Z,33.60
2023-01-18T16:57:43.391Z,33.80
2023-01-18T17:00:18.433Z,33.50
2023-01-18T17:02:47.123Z,33.50
2023-01-18T17:05:17.911Z,34.00
2023-01-18T17:07:46.501Z,34.00
2023-01-18T17:10:21.901Z,33.60
2023-01-18T17:12:49.917Z,33.90
2023-01-18T17:15:20.043Z,33.90
2023-01-18T17:17:48.289Z,34.10
2023-01-18T17:20:22.700Z,33.90
2023-01-18T17:22:51.952Z,34.10
2023-01-18T17:25:21.218Z,33.80
2023-01-18T17:27:50.078Z,34.00
2023-01-18T17:30:22.258Z,34.00
2023-01-18T17:32:50.854Z,34.00
2023-01-18T17:35:23.122Z,34.00
2023-01-18T17:37:57.603Z,34.30
2023-01-18T17:40:40.086Z,34.90
2023-01-18T17:43:15.154Z,34.00
2023-01-18T17:45:51.313Z,34.50
2023-01-18T17:48:26.624Z,34.30
2023-01-18T17:50:55.961Z,34.40
2023-01-18T17:53:23.923Z,34.30
2023-01-18T17:55:52.147Z,33.80
2023-01-18T17:58:20.153Z,34.40
2023-01-18T18:00:48.292Z,34.60
2023-01-18T18:03:16.705Z,34.60
2023-01-18T18:05:45.151Z,34.50
2023-01-18T18:08:14.505Z,34.60
2023-01-18T18:10:43.645Z,34.50
2023-01-18T18:13:11.768Z,34.30
2023-01-18T18:15:39.854Z,34.70
2023-01-18T18:18:21.942Z,34.00
2023-01-18T18:20:50.671Z,34.30
2023-01-18T18:23:19.926Z,34.20
2023-01-18T18:25:49.481Z,34.40
2023-01-18T18:28:17.491Z,34.80
2023-01-18T18:30:48.749Z,34.70
2023-01-18T18:33:17.728Z,34.70
2023-01-18T18:35:46.213Z,34.40
2023-01-18T18:38:15.363Z,34.60
2023-01-18T18:40:44.718Z,35.00
2023-01-18T18:43:13.121Z,34.80
2023-01-18T18:45:41.143Z,34.30
2023-01-18T18:48:10.138Z,35.10
2023-01-18T18:50:38.273Z,35.20
2023-01-18T18:53:06.264Z,35.20
2023-01-18T18:55:34.427Z,35.00
2023-01-18T18:58:03.744Z,35.00
2023-01-18T19:00:32.227Z,34.90
2023-01-18T19:03:02.110Z,34.80
2023-01-18T19:05:31.412Z,34.80
2023-01-18T19:07:59.965Z,35.00
2023-01-18T19:10:30.308Z,35.00
2023-01-18T19:12:59.234Z,35.00
2023-01-18T19:15:28.866Z,35.00
2023-01-18T19:17:57.905Z,35.30
2023-01-18T19:20:26.092Z,34.90
2023-01-18T19:22:54.155Z,35.00
2023-01-18T19:25:22.155Z,35.10
2023-01-18T19:27:50.249Z,35.10
2023-01-18T19:30:19.998Z,35.30
2023-01-18T19:32:50.891Z,35.00
2023-01-18T19:35:20.388Z,34.60
2023-01-18T19:37:49.243Z,34.80
2023-01-18T19:40:17.918Z,34.90
2023-01-18T19:42:46.531Z,35.20
2023-01-18T19:45:26.866Z,35.00
2023-01-18T19:47:59.709Z,35.40
2023-01-18T19:50:30.232Z,35.10
2023-01-18T19:52:59.740Z,34.90
2023-01-18T19:55:28.148Z,35.10
2023-01-18T19:57:57.422Z,35.10
2023-01-18T20:00:25.905Z,35.20
2023-01-18T20:02:54.236Z,35.00
2023-01-18T20:05:23.686Z,34.50
2023-01-18T20:07:52.247Z,35.00
2023-01-18T20:10:20.989Z,35.00
2023-01-18T20:12:49.834Z,34.60
2023-01-18T20:15:18.890Z,35.20
2023-01-18T20:17:46.927Z,35.40
2023-01-18T20:20:24.186Z,35.30
2023-01-18T20:23:03.043Z,35.30
2023-01-18T20:25:32.527Z,35.30
2023-01-18T20:28:00.702Z,35.30
2023-01-18T20:30:28.773Z,35.30
2023-01-18T20:32:56.858Z,34.30
2023-01-18T20:35:24.955Z,35.20
2023-01-18T20:37:54.383Z,35.20
2023-01-18T20:40:23.947Z,35.30
2023-01-18T20:42:52.026Z,34.90
2023-01-18T20:45:20.384Z,35.30
2023-01-18T20:47:48.430Z,35.30
2023-01-18T20:50:17.837Z,35.20
2023-01-18T20:52:49.228Z,35.30
2023-01-18T20:55:18.728Z,35.40
2023-01-18T20:57:51.713Z,34.80
2023-01-18T21:00:21.078Z,34.80
2023-01-18T21:02:50.283Z,35.20
2023-01-18T21:05:18.731Z,34.80
2023-01-18T21:07:46.793Z,35.00
2023-01-18T21:10:14.844Z,35.30
2023-01-18T21:12:42.999Z,35.30
2023-01-18T21:15:13.218Z,35.20
2023-01-18T21:17:41.223Z,35.20
2023-01-18T21:20:11.651Z,35.20
2023-01-18T21:22:39.696Z,35.20
2023-01-18T21:25:08.738Z,35.20
2023-01-18T21:27:36.921Z,35.20
2023-01-18T21:30:06.229Z,35.40
2023-01-18T21:32:35.682Z,35.50
2023-01-18T21:35:03.761Z,35.40
2023-01-18T21:37:31.900Z,35.20
2023-01-18T21:40:00.566Z,35.40
2023-01-18T21:42:46.285Z,35.40
2023-01-18T21:45:32.604Z,35.60
2023-01-18T21:48:07.164Z,35.60
2023-01-18T21:50:52.928Z,35.40
2023-01-18T21:53:38.789Z,35.40
2023-01-18T21:56:07.679Z,34.60
2023-01-18T21:58:54.213Z,36.50
2023-01-18T22:01:25.149Z,35.50
2023-01-18T22:04:13.518Z,35.60
2023-01-18T22:06:42.293Z,35.60
2023-01-18T22:09:10.407Z,35.50
2023-01-18T22:11:38.534Z,35.30
2023-01-18T22:14:10.521Z,35.40
2023-01-18T22:16:39.149Z,34.90
2023-01-18T22:19:08.735Z,35.60
2023-01-18T22:21:36.869Z,35.60
2023-01-18T22:24:05.823Z,35.40
2023-01-18T22:26:36.324Z,35.50
2023-01-18T22:29:04.696Z,35.70
2023-01-18T22:31:33.231Z,35.50
2023-01-18T22:34:02.459Z,35.50
2023-01-18T22:36:33.184Z,35.40
2023-01-18T22:39:01.947Z,35.60
2023-01-18T22:41:30.639Z,35.60
2023-01-18T22:43:58.849Z,35.40
2023-01-18T22:46:27.038Z,35.50
2023-01-18T22:48:55.186Z,35.40
2023-01-18T22:51:24.503Z,35.30
2023-01-18T22:53:56.021Z,35.40
2023-01-18T22:56:26.837Z,35.60
2023-01-18T22:58:54.919Z,35.50
2023-01-18T23:04:05.303Z,35.60
2023-01-18T23:06:41.993Z,35.60
2023-01-18T23:09:12.177Z,35.60
2023-01-18T23:11:40.601Z,35.80
2023-01-18T23:14:26.976Z,35.70
2023-01-18T23:17:12.535Z,34.70
2023-01-18T23:19:40.627Z,35.60
2023-01-18T23:22:08.676Z,35.80
2023-01-18T23:24:39.362Z,35.90
2023-01-18T23:27:09.936Z,35.70
2023-01-18T23:29:39.025Z,35.70
2023-01-18T23:32:07.643Z,35.70
2023-01-18T23:34:35.757Z,35.70
2023-01-18T23:37:03.830Z,35.60
2023-01-18T23:39:49.255Z,35.70
2023-01-18T23:42:36.164Z,35.50
2023-01-18T23:45:22.047Z,35.60
2023-01-18T23:48:07.657Z,35.60
2023-01-18T23:50:52.956Z,35.40
2023-01-18T23:53:38.286Z,35.70
2023-01-18T23:56:07.010Z,35.60
2023-01-18T23:58:36.344Z,35.30
